Terminal Aerodrome Forecast
Issued by NWS Sterling, VA

Current Version | Previous Version | Text Only | Print | Product List | Glossary Off
Versions: 1 2 3 4 5 6 7 8 9 10 11 12 13 14 15 16 17 18 19 20 21 22 23 24 25 26

117
FTUS41 KLWX 022339 AAE
TAFDCA
TAF AMD
KDCA 022339Z 0300/0324 18006KT 3SM -TSRA OVC040CB
      TEMPO 0300/0301 VRB25KT 2SM TSRA
     FM030200 09004KT 3SM SHRA VCTS OVC050CB
     FM030400 03004KT 3SM SHRA VCTS OVC050CB
     FM030900 32005KT 3SM SHRA VCTS OVC040CB
     FM031200 35007KT P6SM -SHRA OVC008
     FM031600 36005KT P6SM -SHRA OVC015
     FM031800 01005KT P6SM BKN015
     FM032100 04005KT P6SM BKN025=

USA.gov is the U.S. government's official web portal to all federal, state and local government web resources and services.